createdAt,value
2019-02-25T00:00:37.588Z,50.13
2019-02-25T00:03:08.649Z,47.80
2019-02-25T00:05:38.089Z,48.80
2019-02-25T00:08:07.563Z,47.13
2019-02-25T00:10:37.104Z,48.37
2019-02-25T00:13:07.975Z,48.27
2019-02-25T00:15:37.458Z,38.33
2019-02-25T00:18:07.038Z,41.10
2019-02-25T00:20:36.601Z,42.90
2019-02-25T00:23:06.119Z,42.40
2019-02-25T00:25:36.142Z,45.03
2019-02-25T00:28:05.771Z,43.07
2019-02-25T00:30:35.296Z,42.33
2019-02-25T00:33:04.801Z,43.27
2019-02-25T00:35:34.280Z,44.47
2019-02-25T00:38:03.739Z,46.00
2019-02-25T00:40:33.289Z,50.10
2019-02-25T00:43:04.182Z,42.43
2019-02-25T00:45:33.689Z,44.33
2019-02-25T00:48:03.109Z,45.70
2019-02-25T00:50:32.703Z,47.70
2019-02-25T00:53:02.134Z,46.10
2019-02-25T00:55:31.661Z,43.80
2019-02-25T00:58:01.224Z,41.47
2019-02-25T01:00:30.780Z,43.27
2019-02-25T01:03:00.323Z,40.30
2019-02-25T01:05:29.776Z,38.60
2019-02-25T01:07:59.651Z,35.77
2019-02-25T01:10:29.112Z,38.07
2019-02-25T01:12:58.727Z,47.10
2019-02-25T01:15:29.672Z,44.97
2019-02-25T01:18:00.008Z,50.57
2019-02-25T01:20:29.627Z,48.77
2019-02-25T01:22:59.110Z,53.60
2019-02-25T01:25:28.533Z,57.77
2019-02-25T01:27:58.009Z,58.60
2019-02-25T01:30:27.615Z,54.30
2019-02-25T01:32:57.116Z,50.17
2019-02-25T01:35:26.567Z,56.63
2019-02-25T01:37:56.237Z,50.70
2019-02-25T01:40:25.609Z,48.93
2019-02-25T01:42:54.993Z,43.87
2019-02-25T01:45:24.474Z,48.97
2019-02-25T01:47:54.146Z,52.57
2019-02-25T01:50:23.602Z,48.07
2019-02-25T01:52:52.965Z,48.90
2019-02-25T01:55:41.786Z,42.23
2019-02-25T01:58:11.294Z,51.87
2019-02-25T02:00:40.692Z,59.03
2019-02-25T02:03:10.127Z,65.23
2019-02-25T02:05:39.604Z,57.40
2019-02-25T02:08:09.041Z,55.60
2019-02-25T02:10:38.622Z,63.57
2019-02-25T02:13:14.160Z,67.57
2019-02-25T02:15:39.239Z,82.73
2019-02-25T02:18:08.806Z,86.63
2019-02-25T02:20:38.364Z,62.97
2019-02-25T02:23:07.878Z,48.40
2019-02-25T02:25:37.615Z,46.93
2019-02-25T02:28:07.200Z,52.83
2019-02-25T02:30:36.612Z,52.93
2019-02-25T02:33:06.047Z,50.40
2019-02-25T02:35:35.442Z,53.73
2019-02-25T02:38:05.126Z,60.40
2019-02-25T02:40:34.604Z,62.97
2019-02-25T02:43:04.276Z,69.53
2019-02-25T02:45:45.905Z,65.50
2019-02-25T02:48:21.121Z,68.57
2019-02-25T02:50:50.545Z,64.17
2019-02-25T02:53:19.921Z,62.07
2019-02-25T02:55:49.395Z,54.40
2019-02-25T02:58:18.990Z,53.63
2019-02-25T03:00:48.464Z,51.87
2019-02-25T03:03:18.168Z,47.93
2019-02-25T03:05:47.603Z,49.83
2019-02-25T03:08:17.041Z,51.37
2019-02-25T03:10:46.588Z,51.07
2019-02-25T03:13:16.087Z,47.57
2019-02-25T03:15:45.495Z,37.17
2019-02-25T03:18:16.686Z,36.27
2019-02-25T03:20:46.248Z,39.80
2019-02-25T03:23:15.712Z,43.00
2019-02-25T03:25:45.335Z,39.93
2019-02-25T03:28:14.770Z,42.47
2019-02-25T03:30:44.198Z,46.47
2019-02-25T03:33:13.648Z,47.90
2019-02-25T03:35:44.692Z,50.37
2019-02-25T03:38:14.125Z,50.30
2019-02-25T03:40:43.617Z,51.90
2019-02-25T03:43:13.020Z,52.40
2019-02-25T03:45:42.489Z,50.27
2019-02-25T03:48:12.065Z,47.27
2019-02-25T03:50:41.566Z,49.00
2019-02-25T03:53:10.975Z,49.60
2019-02-25T03:55:40.524Z,50.30
2019-02-25T03:58:11.866Z,51.43
2019-02-25T04:00:41.428Z,42.47
2019-02-25T04:03:10.968Z,51.20
2019-02-25T04:05:40.450Z,51.27
2019-02-25T04:08:11.687Z,56.40
2019-02-25T04:10:41.628Z,62.30
2019-02-25T04:13:11.033Z,57.47
2019-02-25T04:15:42.257Z,59.37
2019-02-25T04:18:11.796Z,62.03
2019-02-25T04:20:41.335Z,63.47
2019-02-25T04:23:10.735Z,59.87
2019-02-25T04:25:40.156Z,60.20
2019-02-25T04:28:09.752Z,60.77
2019-02-25T04:30:39.245Z,59.70
2019-02-25T04:33:08.742Z,58.63
2019-02-25T04:35:38.272Z,57.60
2019-02-25T04:38:07.826Z,52.47
2019-02-25T04:40:37.304Z,52.97
2019-02-25T04:43:06.851Z,52.70
2019-02-25T04:45:36.332Z,48.73
2019-02-25T04:48:06.026Z,48.57
2019-02-25T04:50:35.506Z,48.03
2019-02-25T04:53:05.058Z,49.37
2019-02-25T04:55:34.430Z,47.97
2019-02-25T04:58:04.080Z,44.23
2019-02-25T05:00:33.484Z,40.90
2019-02-25T05:03:02.899Z,37.17
2019-02-25T05:05:32.363Z,36.20
2019-02-25T05:08:02.060Z,36.03
2019-02-25T05:10:31.476Z,43.50
2019-02-25T05:13:02.609Z,39.40
2019-02-25T05:15:33.652Z,44.37
2019-02-25T05:18:03.134Z,52.57
2019-02-25T05:20:32.541Z,49.80
2019-02-25T05:23:02.084Z,57.57
2019-02-25T05:25:31.475Z,54.67
2019-02-25T05:28:00.935Z,51.17
2019-02-25T05:30:30.791Z,50.50
2019-02-25T05:33:00.549Z,46.73
2019-02-25T05:35:29.956Z,50.93
2019-02-25T05:37:59.403Z,47.87
2019-02-25T05:40:28.866Z,45.90
2019-02-25T05:42:58.233Z,38.00
2019-02-25T05:45:28.197Z,34.03
2019-02-25T05:47:57.560Z,34.57
2019-02-25T05:50:27.100Z,37.77
2019-02-25T05:52:56.479Z,37.60
2019-02-25T05:55:25.959Z,40.27
2019-02-25T05:57:55.466Z,44.50
2019-02-25T06:00:29.623Z,49.50
2019-02-25T06:02:58.998Z,47.90
2019-02-25T06:05:28.467Z,50.50
2019-02-25T06:07:57.847Z,52.10
2019-02-25T06:10:27.258Z,51.50
2019-02-25T06:12:56.615Z,45.13
2019-02-25T06:15:26.124Z,39.93
2019-02-25T06:17:56.003Z,39.50
2019-02-25T06:20:25.413Z,35.93
2019-02-25T06:22:54.791Z,34.30
2019-02-25T06:25:25.853Z,32.23
2019-02-25T06:27:55.310Z,38.53
2019-02-25T06:30:25.070Z,39.43
2019-02-25T06:32:54.445Z,35.70
2019-02-25T06:35:24.004Z,41.30
2019-02-25T06:37:53.452Z,45.37
2019-02-25T06:40:23.163Z,44.17
2019-02-25T06:42:52.934Z,46.33
2019-02-25T06:45:38.877Z,44.27
2019-02-25T06:48:08.319Z,40.20
2019-02-25T06:50:37.801Z,38.47
2019-02-25T06:53:07.170Z,42.57
2019-02-25T06:55:36.775Z,44.70
2019-02-25T06:58:06.236Z,50.77
2019-02-25T07:00:35.638Z,51.27
2019-02-25T07:03:05.257Z,54.10
2019-02-25T07:05:39.611Z,54.27
2019-02-25T07:08:13.881Z,54.23
2019-02-25T07:10:48.042Z,52.73
2019-02-25T07:13:22.118Z,51.50
2019-02-25T07:16:02.525Z,40.73
2019-02-25T07:18:36.375Z,46.03
2019-02-25T07:21:07.745Z,43.37
2019-02-25T07:23:51.137Z,46.70
2019-02-25T07:26:28.159Z,45.67
2019-02-25T07:29:03.459Z,50.57
2019-02-25T07:31:34.860Z,47.23
2019-02-25T07:34:07.593Z,45.53
2019-02-25T07:36:47.504Z,47.33
2019-02-25T07:39:21.368Z,47.33
2019-02-25T07:42:04.428Z,50.30
2019-02-25T07:44:38.486Z,50.77
2019-02-25T07:47:18.918Z,52.90
2019-02-25T07:49:52.856Z,53.23
2019-02-25T07:52:24.024Z,54.00
2019-02-25T07:55:13.059Z,51.83
2019-02-25T07:57:47.083Z,48.23
2019-02-25T08:00:18.339Z,51.87
2019-02-25T08:02:49.583Z,48.20
2019-02-25T08:05:23.696Z,52.07
2019-02-25T08:08:00.592Z,53.27
2019-02-25T08:10:47.943Z,56.47
2019-02-25T08:13:19.301Z,53.50
2019-02-25T08:16:06.669Z,53.03
2019-02-25T08:18:53.694Z,57.07
2019-02-25T08:21:36.586Z,55.20
2019-02-25T08:24:13.676Z,48.33
2019-02-25T08:26:50.962Z,46.43
2019-02-25T08:29:38.733Z,41.07
2019-02-25T08:32:15.559Z,40.27
2019-02-25T08:34:46.631Z,37.77
2019-02-25T08:37:32.542Z,37.87
2019-02-25T08:40:24.412Z,37.57
2019-02-25T08:42:54.343Z,33.30
2019-02-25T08:45:26.992Z,33.50
2019-02-25T08:48:12.948Z,30.00
2019-02-25T08:50:43.425Z,31.27
2019-02-25T08:53:12.808Z,25.60
2019-02-25T08:55:42.281Z,29.27
2019-02-25T08:58:11.800Z,24.70
2019-02-25T09:00:41.427Z,24.50
2019-02-25T09:03:10.827Z,28.03
2019-02-25T09:05:40.296Z,25.87
2019-02-25T09:08:09.849Z,24.40
2019-02-25T09:10:39.370Z,27.00
2019-02-25T09:13:08.734Z,25.23
2019-02-25T09:15:38.198Z,28.03
2019-02-25T09:18:10.703Z,27.73
2019-02-25T09:20:40.156Z,26.00
2019-02-25T09:23:09.512Z,25.03
2019-02-25T09:25:39.060Z,24.93
2019-02-25T09:28:08.583Z,27.47
2019-02-25T09:30:38.027Z,28.20
2019-02-25T09:33:07.995Z,25.07
2019-02-25T09:35:37.374Z,25.77
2019-02-25T09:38:08.419Z,25.80
2019-02-25T09:40:37.820Z,26.13
2019-02-25T09:43:07.213Z,25.07
2019-02-25T09:45:36.578Z,22.40
2019-02-25T09:48:05.993Z,22.77
2019-02-25T09:50:35.355Z,25.57
2019-02-25T09:53:04.848Z,23.50
2019-02-25T09:55:34.234Z,23.60
2019-02-25T09:58:03.591Z,23.57
2019-02-25T10:00:33.271Z,24.57
2019-02-25T10:03:05.870Z,23.57
2019-02-25T10:05:35.336Z,24.30
2019-02-25T10:08:04.767Z,22.60
2019-02-25T10:10:34.183Z,22.43
2019-02-25T10:13:03.607Z,22.87
2019-02-25T10:15:33.093Z,23.07
2019-02-25T10:18:02.568Z,21.07
2019-02-25T10:20:32.143Z,19.90
2019-02-25T10:23:01.623Z,20.13
2019-02-25T10:25:31.029Z,18.27
2019-02-25T10:28:00.469Z,18.27
2019-02-25T10:30:29.908Z,18.77
2019-02-25T10:33:00.794Z,18.60
2019-02-25T10:35:30.728Z,20.20
2019-02-25T10:38:01.057Z,20.37
2019-02-25T10:40:31.279Z,21.87
2019-02-25T10:43:00.738Z,20.67
2019-02-25T10:45:30.206Z,18.93
2019-02-25T10:47:59.645Z,17.80
2019-02-25T10:50:31.197Z,18.10
2019-02-25T10:53:03.500Z,18.87
2019-02-25T10:55:47.168Z,19.80
2019-02-25T10:58:17.402Z,19.27
2019-02-25T11:00:47.264Z,19.90
2019-02-25T11:03:17.838Z,19.13
2019-02-25T11:05:47.832Z,20.00
2019-02-25T11:08:19.007Z,19.53
2019-02-25T11:10:50.789Z,19.30
2019-02-25T11:13:21.407Z,18.13
2019-02-25T11:15:50.782Z,17.97
2019-02-25T11:18:22.049Z,17.77
2019-02-25T11:20:51.448Z,18.97
2019-02-25T11:23:21.627Z,16.53
2019-02-25T11:25:51.538Z,18.50
2019-02-25T11:28:25.873Z,18.37
2019-02-25T11:30:53.898Z,18.43
2019-02-25T11:33:25.267Z,17.50
2019-02-25T11:35:55.390Z,17.20
2019-02-25T11:38:26.032Z,18.10
2019-02-25T11:40:56.287Z,15.87
2019-02-25T11:43:25.827Z,17.80
2019-02-25T11:45:55.200Z,17.17
2019-02-25T11:48:24.602Z,16.37
2019-02-25T11:50:54.119Z,16.60
2019-02-25T11:53:23.656Z,16.73
2019-02-25T11:55:53.130Z,16.63
2019-02-25T11:58:22.655Z,16.20
2019-02-25T12:00:52.072Z,16.47
2019-02-25T12:03:22.189Z,15.80
2019-02-25T12:05:52.616Z,16.53
2019-02-25T12:08:22.197Z,16.83
2019-02-25T12:10:51.745Z,15.47
2019-02-25T12:13:22.752Z,16.73
2019-02-25T12:15:52.297Z,16.87
2019-02-25T12:18:22.355Z,17.30
2019-02-25T12:20:51.818Z,16.47
2019-02-25T12:23:21.193Z,17.67
2019-02-25T12:25:50.682Z,16.20
2019-02-25T12:28:20.092Z,15.77
2019-02-25T12:30:49.562Z,16.20
2019-02-25T12:33:19.075Z,15.50
2019-02-25T12:35:48.482Z,15.67
2019-02-25T12:38:18.147Z,15.53
2019-02-25T12:40:47.627Z,15.77
2019-02-25T12:43:17.001Z,15.50
2019-02-25T12:45:46.402Z,15.97
2019-02-25T12:48:15.778Z,15.40
2019-02-25T12:50:45.254Z,15.77
2019-02-25T12:53:14.658Z,15.83
2019-02-25T12:55:44.215Z,15.03
2019-02-25T12:58:13.687Z,15.33
2019-02-25T13:00:43.135Z,14.63
2019-02-25T13:03:12.620Z,14.67
2019-02-25T13:05:42.166Z,14.90
2019-02-25T13:08:11.582Z,13.90
2019-02-25T13:10:41.143Z,14.23
2019-02-25T13:13:10.611Z,14.47
2019-02-25T13:15:40.087Z,14.80
2019-02-25T13:18:09.463Z,15.40
2019-02-25T13:20:40.451Z,13.63
2019-02-25T13:23:09.903Z,15.33
2019-02-25T13:25:39.370Z,14.37
2019-02-25T13:28:08.941Z,14.10
2019-02-25T13:30:38.492Z,15.70
2019-02-25T13:33:09.506Z,15.10
2019-02-25T13:35:39.250Z,15.10
2019-02-25T13:38:08.731Z,15.27
2019-02-25T13:40:38.768Z,15.53
2019-02-25T13:43:08.279Z,14.90
2019-02-25T13:45:37.895Z,14.77
2019-02-25T13:48:07.410Z,14.30
2019-02-25T13:50:36.905Z,14.53
2019-02-25T13:53:06.345Z,14.33
2019-02-25T13:55:35.824Z,15.00
2019-02-25T13:58:05.522Z,14.80
2019-02-25T14:00:35.284Z,15.63
2019-02-25T14:03:04.733Z,16.27
2019-02-25T14:05:34.211Z,16.67
2019-02-25T14:08:03.835Z,16.43
2019-02-25T14:10:33.314Z,18.83
2019-02-25T14:13:04.574Z,18.20
2019-02-25T14:15:34.123Z,17.80
2019-02-25T14:18:03.685Z,18.23
2019-02-25T14:20:33.254Z,18.60
2019-02-25T14:23:02.814Z,18.20
2019-02-25T14:25:34.187Z,18.83
2019-02-25T14:28:08.122Z,18.43
2019-02-25T14:30:39.844Z,18.30
2019-02-25T14:33:09.392Z,18.43
2019-02-25T14:35:38.958Z,17.63
2019-02-25T14:38:17.273Z,19.80
2019-02-25T14:40:46.607Z,17.63
2019-02-25T14:43:18.143Z,18.97
2019-02-25T14:45:51.801Z,19.77
2019-02-25T14:48:20.981Z,20.27
2019-02-25T14:50:51.302Z,19.90
2019-02-25T14:53:20.884Z,18.90
2019-02-25T14:55:53.129Z,17.17
2019-02-25T14:58:22.181Z,17.57
2019-02-25T15:00:51.726Z,15.13
2019-02-25T15:03:22.673Z,14.20
2019-02-25T15:05:53.268Z,12.23
2019-02-25T15:08:24.109Z,11.97
2019-02-25T15:10:55.519Z,12.03
2019-02-25T15:13:26.542Z,11.30
2019-02-25T15:15:58.342Z,11.80
2019-02-25T15:18:29.054Z,12.00
2019-02-25T15:21:02.083Z,12.43
2019-02-25T15:23:30.682Z,11.53
2019-02-25T15:26:05.155Z,11.80
2019-02-25T15:28:31.354Z,11.03
2019-02-25T15:31:04.112Z,10.80
2019-02-25T15:33:35.472Z,11.23
2019-02-25T15:36:05.135Z,11.50
2019-02-25T15:38:35.009Z,12.07
2019-02-25T15:41:07.332Z,11.73
2019-02-25T15:43:37.067Z,11.53
2019-02-25T15:46:06.907Z,12.60
2019-02-25T15:48:37.261Z,13.47
2019-02-25T15:51:08.017Z,13.27
2019-02-25T15:53:37.543Z,12.47
2019-02-25T15:56:08.106Z,12.57
2019-02-25T15:58:38.817Z,12.23
2019-02-25T16:01:09.439Z,12.30
2019-02-25T16:03:40.876Z,14.87
2019-02-25T16:06:10.699Z,15.53
2019-02-25T16:08:40.152Z,14.80
2019-02-25T16:11:11.854Z,14.90
2019-02-25T16:13:41.247Z,15.27
2019-02-25T16:16:11.286Z,14.43
2019-02-25T16:18:42.577Z,15.07
2019-02-25T16:21:13.299Z,15.20
2019-02-25T16:23:43.680Z,14.47
2019-02-25T16:26:16.073Z,17.40
2019-02-25T16:28:47.355Z,21.10
2019-02-25T16:31:16.922Z,18.37
2019-02-25T16:33:47.104Z,18.30
2019-02-25T16:36:18.083Z,17.07
2019-02-25T16:38:51.104Z,16.70
2019-02-25T16:41:27.140Z,16.80
2019-02-25T16:43:49.787Z,16.50
2019-02-25T16:46:20.356Z,16.70
2019-02-25T16:48:51.072Z,15.30
2019-02-25T16:51:21.350Z,16.80
2019-02-25T16:53:52.333Z,21.80
2019-02-25T16:56:22.109Z,21.03
2019-02-25T16:58:52.624Z,19.70
2019-02-25T17:01:25.792Z,20.13
2019-02-25T17:03:53.873Z,19.30
2019-02-25T17:06:23.432Z,19.47
2019-02-25T17:08:53.540Z,19.53
2019-02-25T17:11:24.040Z,19.10
2019-02-25T17:13:55.079Z,19.67
2019-02-25T17:16:24.825Z,21.30
2019-02-25T17:18:54.266Z,22.00
2019-02-25T17:21:26.566Z,23.93
2019-02-25T17:23:58.255Z,27.33
2019-02-25T17:26:28.410Z,27.67
2019-02-25T17:28:57.944Z,30.03
2019-02-25T17:31:27.488Z,31.30
2019-02-25T17:33:57.889Z,30.80
2019-02-25T17:36:27.562Z,30.03
2019-02-25T17:38:57.234Z,31.67
2019-02-25T17:41:26.714Z,32.20
2019-02-25T17:43:57.082Z,32.20
2019-02-25T17:46:28.860Z,31.00
2019-02-25T17:48:58.768Z,31.80
2019-02-25T17:51:42.716Z,32.90
2019-02-25T17:54:12.976Z,32.73
2019-02-25T17:56:44.819Z,30.60
2019-02-25T17:59:14.682Z,33.73
2019-02-25T18:01:46.133Z,33.33
2019-02-25T18:04:15.406Z,33.30
2019-02-25T18:06:44.863Z,31.30
2019-02-25T18:09:16.096Z,28.23
2019-02-25T18:11:47.216Z,29.43
2019-02-25T18:14:18.104Z,32.33
2019-02-25T18:16:49.586Z,32.07
2019-02-25T18:19:20.897Z,32.83
2019-02-25T18:21:50.911Z,36.50
2019-02-25T18:24:20.529Z,35.43
2019-02-25T18:26:50.169Z,31.07
2019-02-25T18:29:20.778Z,36.03
2019-02-25T18:31:51.181Z,38.50
2019-02-25T18:34:21.467Z,36.40
2019-02-25T18:36:53.107Z,39.27
2019-02-25T18:39:23.124Z,40.17
2019-02-25T18:41:55.141Z,38.07
2019-02-25T18:44:25.961Z,40.10
2019-02-25T18:46:59.871Z,41.53
2019-02-25T18:49:30.213Z,41.20
2019-02-25T18:52:00.379Z,40.53
2019-02-25T18:54:31.624Z,36.57
2019-02-25T18:57:03.199Z,35.47
2019-02-25T18:59:32.616Z,39.27
2019-02-25T19:02:07.920Z,40.10
2019-02-25T19:04:39.218Z,42.17
2019-02-25T19:07:10.372Z,42.47
2019-02-25T19:09:42.883Z,43.47
2019-02-25T19:12:22.468Z,41.87
2019-02-25T19:14:55.143Z,38.13
2019-02-25T19:17:25.406Z,42.93
2019-02-25T19:19:55.809Z,41.17
2019-02-25T19:22:28.476Z,48.23
2019-02-25T19:24:59.736Z,38.10
2019-02-25T19:27:31.671Z,39.67
2019-02-25T19:30:03.009Z,36.77
2019-02-25T19:32:35.965Z,35.50
2019-02-25T19:35:10.012Z,35.23
2019-02-25T19:37:41.764Z,38.33
2019-02-25T19:40:20.049Z,38.90
2019-02-25T19:42:51.551Z,41.43
2019-02-25T19:45:21.761Z,43.03
2019-02-25T19:47:51.335Z,39.67
2019-02-25T19:50:22.340Z,33.43
2019-02-25T19:52:52.255Z,32.90
2019-02-25T19:55:23.274Z,30.57
2019-02-25T19:57:52.953Z,32.40
2019-02-25T20:00:27.713Z,32.33
2019-02-25T20:03:05.484Z,38.83
2019-02-25T20:05:30.616Z,38.03
2019-02-25T20:08:00.086Z,42.63
2019-02-25T20:10:30.614Z,43.53
2019-02-25T20:13:00.461Z,36.57
2019-02-25T20:15:29.981Z,31.47
2019-02-25T20:18:01.184Z,32.40
2019-02-25T20:20:34.610Z,46.57
2019-02-25T20:23:06.024Z,45.97
2019-02-25T20:25:35.424Z,36.77
2019-02-25T20:28:05.278Z,33.23
2019-02-25T20:30:35.091Z,44.50
2019-02-25T20:33:06.920Z,55.60
2019-02-25T20:35:36.404Z,55.07
2019-02-25T20:38:07.414Z,48.83
2019-02-25T20:40:36.840Z,44.93
2019-02-25T20:43:06.376Z,41.10
2019-02-25T20:45:36.093Z,52.67
2019-02-25T20:48:06.225Z,68.70
2019-02-25T20:50:35.662Z,68.27
2019-02-25T20:53:06.478Z,76.47
2019-02-25T20:55:36.423Z,77.83
2019-02-25T20:58:06.314Z,80.00
2019-02-25T21:00:39.025Z,78.73
2019-02-25T21:03:07.409Z,70.07
2019-02-25T21:05:36.883Z,72.17
2019-02-25T21:08:06.833Z,69.77
2019-02-25T21:10:36.340Z,72.30
2019-02-25T21:13:05.882Z,78.53
2019-02-25T21:15:36.346Z,80.27
2019-02-25T21:18:07.798Z,78.90
2019-02-25T21:20:37.435Z,81.10
2019-02-25T21:23:12.018Z,116.30
2019-02-25T21:25:41.576Z,124.40
2019-02-25T21:28:11.414Z,148.30
2019-02-25T21:30:43.212Z,104.40
2019-02-25T21:33:15.283Z,81.57
2019-02-25T21:35:43.110Z,97.30
2019-02-25T21:38:12.504Z,88.53
2019-02-25T21:40:43.842Z,81.70
2019-02-25T21:43:16.270Z,81.77
2019-02-25T21:45:46.060Z,79.40
2019-02-25T21:48:15.372Z,75.73
2019-02-25T21:50:44.859Z,76.20
2019-02-25T21:53:16.142Z,79.03
2019-02-25T21:55:45.487Z,78.00
2019-02-25T21:58:16.820Z,84.63
2019-02-25T22:00:46.165Z,86.73
2019-02-25T22:03:17.347Z,96.00
2019-02-25T22:05:49.348Z,91.57
2019-02-25T22:08:20.109Z,92.27
2019-02-25T22:10:49.159Z,91.80
2019-02-25T22:13:20.731Z,91.33
2019-02-25T22:15:49.931Z,91.67
2019-02-25T22:18:19.335Z,91.73
2019-02-25T22:20:49.296Z,94.30
2019-02-25T22:23:21.966Z,89.10
2019-02-25T22:25:51.089Z,95.53
2019-02-25T22:28:22.056Z,102.13
2019-02-25T22:30:51.952Z,95.53
2019-02-25T22:33:27.731Z,92.17
2019-02-25T22:35:53.861Z,97.40
2019-02-25T22:38:23.339Z,95.77
2019-02-25T22:40:53.592Z,98.03
2019-02-25T22:43:24.001Z,84.13
2019-02-25T22:45:56.187Z,82.63
2019-02-25T22:48:25.005Z,76.90
2019-02-25T22:50:55.462Z,77.47
2019-02-25T22:53:25.450Z,78.60
2019-02-25T22:55:54.846Z,84.87
2019-02-25T22:58:24.460Z,83.27
2019-02-25T23:00:58.340Z,90.97
2019-02-25T23:03:27.658Z,88.50
2019-02-25T23:05:57.277Z,90.57
2019-02-25T23:08:26.688Z,87.13
2019-02-25T23:10:56.194Z,82.43
2019-02-25T23:13:27.496Z,85.43
2019-02-25T23:15:58.679Z,80.40
2019-02-25T23:18:28.253Z,65.47
2019-02-25T23:21:00.358Z,65.37
2019-02-25T23:23:30.477Z,63.20
2019-02-25T23:25:59.858Z,63.70
2019-02-25T23:28:30.483Z,59.77
2019-02-25T23:31:00.170Z,64.13
2019-02-25T23:33:29.618Z,66.50
2019-02-25T23:35:59.082Z,73.10
2019-02-25T23:38:28.476Z,76.00
2019-02-25T23:41:01.273Z,84.03
2019-02-25T23:43:33.752Z,88.53
2019-02-25T23:46:02.183Z,84.20
2019-02-25T23:48:33.651Z,92.27
2019-02-25T23:51:02.507Z,94.23
2019-02-25T23:53:32.959Z,96.73
2019-02-25T23:56:03.057Z,96.83
2019-02-25T23:58:32.498Z,96.63
